BYS142 UMMS-UKLL
Flight info
| Callsign | BYS142 |
|---|---|
| Flight time | 1h 13m |
| Altitude | 26000 |
| Route | TAZIP P26 KOVUS |
| Aircraft | PC12/L-SBDFGRWY/SB1 |
Departure
| Time | 2026-04-22 15:09 |
|---|---|
| Airport | Minsk National Airport (UMMS) |
Arrival
| Time | 2026-04-22 16:22 |
|---|---|
| Airport | Lviv International Airport (UKLL) |
| Time | Latitude | Longitude | Altitude | Speed | Heading |
|---|---|---|---|---|---|
| 2026-04-22 14:27 | 53.89657 | 28.01565 | 630 ft | 0 kts | 5° |
| 2026-04-22 14:55 | 53.89652 | 28.01564 | 631 ft | 3 kts | 4° |
| 2026-04-22 14:56 | 53.89627 | 28.01572 | 631 ft | 4 kts | 324° |
| 2026-04-22 14:56 | 53.89622 | 28.01578 | 631 ft | 0 kts | 319° |
| 2026-04-22 15:01 | 53.89624 | 28.01575 | 631 ft | 2 kts | 304° |
| 2026-04-22 15:01 | 53.89604 | 28.01517 | 632 ft | 11 kts | 226° |
| 2026-04-22 15:01 | 53.89527 | 28.01555 | 631 ft | 15 kts | 137° |
| 2026-04-22 15:02 | 53.89444 | 28.01680 | 631 ft | 16 kts | 138° |
| 2026-04-22 15:02 | 53.89368 | 28.01790 | 631 ft | 15 kts | 140° |
| 2026-04-22 15:02 | 53.89276 | 28.01927 | 634 ft | 20 kts | 138° |
| 2026-04-22 15:02 | 53.89162 | 28.02097 | 631 ft | 22 kts | 137° |
| 2026-04-22 15:03 | 53.89048 | 28.02266 | 631 ft | 22 kts | 139° |
| 2026-04-22 15:03 | 53.88934 | 28.02431 | 631 ft | 21 kts | 139° |
| 2026-04-22 15:03 | 53.88823 | 28.02593 | 631 ft | 21 kts | 146° |
| 2026-04-22 15:03 | 53.88715 | 28.02758 | 631 ft | 21 kts | 140° |
| 2026-04-22 15:04 | 53.88641 | 28.02863 | 639 ft | 21 kts | 141° |
| 2026-04-22 15:04 | 53.88516 | 28.03055 | 631 ft | 21 kts | 138° |
| 2026-04-22 15:04 | 53.88411 | 28.03209 | 631 ft | 19 kts | 140° |
| 2026-04-22 15:04 | 53.88340 | 28.03204 | 631 ft | 10 kts | 234° |
| 2026-04-22 15:05 | 53.88338 | 28.03200 | 631 ft | 0 kts | 234° |
| 2026-04-22 15:07 | 53.88334 | 28.03189 | 631 ft | 6 kts | 234° |
| 2026-04-22 15:07 | 53.88305 | 28.03134 | 638 ft | 11 kts | 231° |
| 2026-04-22 15:07 | 53.88264 | 28.03040 | 636 ft | 7 kts | 281° |
| 2026-04-22 15:07 | 53.88277 | 28.03021 | 631 ft | 0 kts | 320° |
| 2026-04-22 15:08 | 53.88309 | 28.02971 | 631 ft | 27 kts | 314° |
| 2026-04-22 15:08 | 53.88598 | 28.02536 | 643 ft | 76 kts | 319° |
| 2026-04-22 15:08 | 53.89053 | 28.01930 | 852 ft | 89 kts | 320° |
| 2026-04-22 15:08 | 53.89527 | 28.01228 | 1242 ft | 91 kts | 317° |
| 2026-04-22 15:09 | 53.90048 | 28.00421 | 1485 ft | 119 kts | 317° |
| 2026-04-22 15:09 | 53.90702 | 27.99419 | 1958 ft | 131 kts | 316° |
| 2026-04-22 15:09 | 53.91394 | 27.98347 | 2598 ft | 134 kts | 317° |
| 2026-04-22 15:09 | 53.92109 | 27.97314 | 3177 ft | 137 kts | 317° |
| 2026-04-22 15:10 | 53.92833 | 27.96254 | 3792 ft | 137 kts | 317° |
| 2026-04-22 15:10 | 53.93560 | 27.95177 | 4377 ft | 141 kts | 317° |
| 2026-04-22 15:10 | 53.94296 | 27.94085 | 4832 ft | 143 kts | 317° |
| 2026-04-22 15:10 | 53.95021 | 27.92869 | 5211 ft | 149 kts | 301° |
| 2026-04-22 15:11 | 53.95091 | 27.91142 | 5705 ft | 154 kts | 255° |
| 2026-04-22 15:11 | 53.94446 | 27.89605 | 6112 ft | 171 kts | 223° |
| 2026-04-22 15:11 | 53.93393 | 27.88600 | 6569 ft | 175 kts | 213° |
| 2026-04-22 15:11 | 53.92314 | 27.87599 | 7006 ft | 177 kts | 217° |
| 2026-04-22 15:12 | 53.91258 | 27.86507 | 7465 ft | 179 kts | 218° |
| 2026-04-22 15:12 | 53.90189 | 27.85377 | 7879 ft | 183 kts | 218° |
| 2026-04-22 15:12 | 53.89100 | 27.84234 | 8318 ft | 185 kts | 217° |
| 2026-04-22 15:12 | 53.87992 | 27.83074 | 8790 ft | 188 kts | 217° |
| 2026-04-22 15:13 | 53.86871 | 27.81902 | 9236 ft | 191 kts | 217° |
| 2026-04-22 15:13 | 53.85729 | 27.80707 | 9663 ft | 195 kts | 217° |
| 2026-04-22 15:13 | 53.84567 | 27.79493 | 10072 ft | 197 kts | 217° |
| 2026-04-22 15:13 | 53.83393 | 27.78268 | 10510 ft | 199 kts | 217° |
| 2026-04-22 15:14 | 53.82209 | 27.77032 | 10910 ft | 201 kts | 217° |
| 2026-04-22 15:14 | 53.81016 | 27.75787 | 11329 ft | 203 kts | 216° |
| 2026-04-22 15:14 | 53.79802 | 27.74522 | 11742 ft | 205 kts | 216° |
| 2026-04-22 15:14 | 53.78578 | 27.73248 | 12163 ft | 207 kts | 216° |
| 2026-04-22 15:15 | 53.77322 | 27.71940 | 12575 ft | 210 kts | 216° |
| 2026-04-22 15:15 | 53.76103 | 27.70673 | 13004 ft | 212 kts | 216° |
| 2026-04-22 15:15 | 53.74809 | 27.69328 | 13442 ft | 214 kts | 216° |
| 2026-04-22 15:15 | 53.73534 | 27.68004 | 13842 ft | 216 kts | 216° |
| 2026-04-22 15:16 | 53.72243 | 27.66665 | 14226 ft | 218 kts | 216° |
| 2026-04-22 15:16 | 53.70947 | 27.65320 | 14604 ft | 220 kts | 216° |
| 2026-04-22 15:16 | 53.69632 | 27.63957 | 14991 ft | 222 kts | 216° |
| 2026-04-22 15:16 | 53.68347 | 27.62632 | 15611 ft | 211 kts | 216° |
| 2026-04-22 15:17 | 53.67098 | 27.61342 | 16098 ft | 212 kts | 216° |
| 2026-04-22 15:17 | 53.65830 | 27.60026 | 16517 ft | 215 kts | 216° |
| 2026-04-22 15:17 | 53.64536 | 27.58689 | 16975 ft | 217 kts | 216° |
| 2026-04-22 15:17 | 53.63239 | 27.57351 | 17418 ft | 218 kts | 216° |
| 2026-04-22 15:18 | 53.61921 | 27.55991 | 17862 ft | 220 kts | 216° |
| 2026-04-22 15:18 | 53.60606 | 27.54634 | 18277 ft | 222 kts | 216° |
| 2026-04-22 15:18 | 53.59407 | 27.53399 | 18620 ft | 224 kts | 216° |
| 2026-04-22 15:18 | 53.58077 | 27.52030 | 18986 ft | 225 kts | 216° |
| 2026-04-22 15:19 | 53.56715 | 27.50629 | 19362 ft | 227 kts | 215° |
| 2026-04-22 15:19 | 53.55364 | 27.49240 | 19727 ft | 229 kts | 215° |
| 2026-04-22 15:19 | 53.53999 | 27.47838 | 20086 ft | 230 kts | 215° |
| 2026-04-22 15:19 | 53.52613 | 27.46416 | 20441 ft | 232 kts | 215° |
| 2026-04-22 15:20 | 53.51700 | 27.45479 | 20677 ft | 233 kts | 215° |
| 2026-04-22 15:20 | 53.49838 | 27.43571 | 21165 ft | 235 kts | 215° |
| 2026-04-22 15:20 | 53.48459 | 27.42158 | 21499 ft | 237 kts | 214° |
| 2026-04-22 15:20 | 53.47045 | 27.40712 | 21862 ft | 238 kts | 214° |
| 2026-04-22 15:21 | 53.45606 | 27.39241 | 22217 ft | 240 kts | 214° |
| 2026-04-22 15:21 | 53.44202 | 27.37807 | 22553 ft | 241 kts | 214° |
| 2026-04-22 15:21 | 53.42780 | 27.36356 | 23107 ft | 232 kts | 214° |
| 2026-04-22 15:21 | 53.41412 | 27.34966 | 23610 ft | 230 kts | 214° |
| 2026-04-22 15:22 | 53.40015 | 27.33539 | 23901 ft | 235 kts | 214° |
| 2026-04-22 15:22 | 53.38635 | 27.32132 | 24228 ft | 236 kts | 214° |
| 2026-04-22 15:22 | 53.37224 | 27.30697 | 24559 ft | 238 kts | 214° |
| 2026-04-22 15:22 | 53.35802 | 27.29252 | 24885 ft | 240 kts | 213° |
| 2026-04-22 15:23 | 53.34388 | 27.27817 | 25383 ft | 231 kts | 213° |
| 2026-04-22 15:23 | 53.33029 | 27.26441 | 25890 ft | 226 kts | 213° |
| 2026-04-22 15:23 | 53.31619 | 27.25004 | 25896 ft | 248 kts | 213° |
| 2026-04-22 15:23 | 53.30096 | 27.23452 | 25896 ft | 264 kts | 213° |
| 2026-04-22 15:24 | 53.28507 | 27.21841 | 25899 ft | 275 kts | 213° |
| 2026-04-22 15:24 | 53.26832 | 27.20148 | 25900 ft | 284 kts | 213° |
| 2026-04-22 15:24 | 53.25125 | 27.18421 | 25902 ft | 291 kts | 213° |
| 2026-04-22 15:24 | 53.23371 | 27.16650 | 25899 ft | 296 kts | 213° |
| 2026-04-22 15:25 | 53.21591 | 27.14853 | 25900 ft | 300 kts | 213° |
| 2026-04-22 15:25 | 53.19795 | 27.13043 | 25901 ft | 303 kts | 213° |
| 2026-04-22 15:25 | 53.18000 | 27.11235 | 25900 ft | 304 kts | 213° |
| 2026-04-22 15:25 | 53.16145 | 27.09370 | 25901 ft | 306 kts | 212° |
| 2026-04-22 15:26 | 53.14316 | 27.07537 | 25905 ft | 306 kts | 212° |
| 2026-04-22 15:26 | 53.12530 | 27.05748 | 25903 ft | 307 kts | 212° |
| 2026-04-22 15:26 | 53.10680 | 27.03892 | 25904 ft | 307 kts | 212° |
| 2026-04-22 15:26 | 53.08903 | 27.02109 | 25908 ft | 308 kts | 212° |
| 2026-04-22 15:27 | 53.07005 | 27.00210 | 25902 ft | 308 kts | 212° |
| 2026-04-22 15:27 | 53.05164 | 26.98370 | 25909 ft | 308 kts | 212° |
| 2026-04-22 15:27 | 53.03339 | 26.96547 | 25907 ft | 308 kts | 212° |
| 2026-04-22 15:27 | 53.01485 | 26.94697 | 25909 ft | 308 kts | 212° |
| 2026-04-22 15:28 | 52.99646 | 26.92864 | 25907 ft | 308 kts | 212° |
| 2026-04-22 15:28 | 52.97818 | 26.91044 | 25906 ft | 308 kts | 212° |
| 2026-04-22 15:28 | 52.95970 | 26.89206 | 25911 ft | 308 kts | 212° |
| 2026-04-22 15:28 | 52.94222 | 26.87469 | 25907 ft | 308 kts | 212° |
| 2026-04-22 15:29 | 52.92968 | 26.86223 | 25910 ft | 308 kts | 212° |
| 2026-04-22 15:29 | 52.91148 | 26.84417 | 25911 ft | 308 kts | 212° |
| 2026-04-22 15:29 | 52.89296 | 26.82582 | 25910 ft | 308 kts | 212° |
| 2026-04-22 15:30 | 52.85588 | 26.78912 | 25909 ft | 308 kts | 212° |
| 2026-04-22 15:30 | 52.83724 | 26.77070 | 25912 ft | 308 kts | 212° |
| 2026-04-22 15:30 | 52.81881 | 26.75251 | 25910 ft | 308 kts | 212° |
| 2026-04-22 15:30 | 52.80035 | 26.73431 | 25911 ft | 308 kts | 212° |
| 2026-04-22 15:31 | 52.78193 | 26.71616 | 25910 ft | 308 kts | 212° |
| 2026-04-22 15:31 | 52.76360 | 26.69811 | 25913 ft | 308 kts | 212° |
| 2026-04-22 15:31 | 52.74525 | 26.68007 | 25909 ft | 308 kts | 211° |
| 2026-04-22 15:31 | 52.72651 | 26.66167 | 25911 ft | 308 kts | 211° |
| 2026-04-22 15:32 | 52.70788 | 26.64338 | 25914 ft | 308 kts | 211° |
| 2026-04-22 15:32 | 52.68949 | 26.62536 | 25913 ft | 308 kts | 211° |
| 2026-04-22 15:32 | 52.67066 | 26.60692 | 25917 ft | 308 kts | 211° |
| 2026-04-22 15:32 | 52.65187 | 26.58854 | 25917 ft | 308 kts | 211° |
| 2026-04-22 15:33 | 52.63338 | 26.57047 | 25918 ft | 309 kts | 211° |
| 2026-04-22 15:33 | 52.61492 | 26.55244 | 25919 ft | 309 kts | 211° |
| 2026-04-22 15:33 | 52.59647 | 26.53444 | 25918 ft | 309 kts | 211° |
| 2026-04-22 15:33 | 52.57797 | 26.51642 | 25923 ft | 309 kts | 211° |
| 2026-04-22 15:34 | 52.55950 | 26.49844 | 25923 ft | 309 kts | 211° |
| 2026-04-22 15:34 | 52.54099 | 26.48044 | 25920 ft | 309 kts | 211° |
| 2026-04-22 15:34 | 52.52249 | 26.46247 | 25924 ft | 309 kts | 211° |
| 2026-04-22 15:34 | 52.50411 | 26.44463 | 25924 ft | 308 kts | 211° |
| 2026-04-22 15:35 | 52.49191 | 26.43279 | 25925 ft | 308 kts | 211° |
| 2026-04-22 15:35 | 52.46711 | 26.40876 | 25928 ft | 308 kts | 211° |
| 2026-04-22 15:35 | 52.44907 | 26.39131 | 25930 ft | 308 kts | 211° |
| 2026-04-22 15:35 | 52.43016 | 26.37302 | 25927 ft | 308 kts | 211° |
| 2026-04-22 15:36 | 52.41170 | 26.35519 | 25930 ft | 308 kts | 211° |
| 2026-04-22 15:36 | 52.39326 | 26.33741 | 25928 ft | 308 kts | 211° |
| 2026-04-22 15:36 | 52.37473 | 26.31954 | 25929 ft | 308 kts | 211° |
| 2026-04-22 15:36 | 52.35660 | 26.30209 | 25930 ft | 308 kts | 211° |
| 2026-04-22 15:37 | 52.33811 | 26.28430 | 25930 ft | 308 kts | 211° |
| 2026-04-22 15:37 | 52.32005 | 26.26693 | 25930 ft | 308 kts | 211° |
| 2026-04-22 15:37 | 52.30159 | 26.24921 | 25935 ft | 308 kts | 211° |
| 2026-04-22 15:37 | 52.28314 | 26.23152 | 25934 ft | 308 kts | 211° |
| 2026-04-22 15:38 | 52.26469 | 26.21383 | 25935 ft | 308 kts | 210° |
| 2026-04-22 15:38 | 52.22768 | 26.17842 | 25937 ft | 308 kts | 210° |
| 2026-04-22 15:38 | 52.20921 | 26.16077 | 25935 ft | 307 kts | 210° |
| 2026-04-22 15:39 | 52.19073 | 26.14313 | 25940 ft | 308 kts | 210° |
| 2026-04-22 15:39 | 52.17227 | 26.12553 | 25941 ft | 308 kts | 210° |
| 2026-04-22 15:39 | 52.15404 | 26.10815 | 25941 ft | 308 kts | 210° |
| 2026-04-22 15:39 | 52.13528 | 26.09030 | 25942 ft | 308 kts | 210° |
| 2026-04-22 15:40 | 52.11686 | 26.07278 | 25942 ft | 308 kts | 210° |
| 2026-04-22 15:40 | 52.09859 | 26.05543 | 25943 ft | 308 kts | 210° |
| 2026-04-22 15:40 | 52.07983 | 26.03763 | 25943 ft | 308 kts | 210° |
| 2026-04-22 15:40 | 52.06162 | 26.02036 | 25943 ft | 308 kts | 210° |
| 2026-04-22 15:41 | 52.04289 | 26.00262 | 25947 ft | 308 kts | 210° |
| 2026-04-22 15:41 | 52.02449 | 25.98521 | 25944 ft | 308 kts | 210° |
| 2026-04-22 15:41 | 52.00586 | 25.96759 | 25946 ft | 308 kts | 210° |
| 2026-04-22 15:41 | 51.98738 | 25.95015 | 25946 ft | 308 kts | 210° |
| 2026-04-22 15:42 | 51.96878 | 25.93259 | 25949 ft | 308 kts | 210° |
| 2026-04-22 15:42 | 51.95030 | 25.91517 | 25950 ft | 308 kts | 210° |
| 2026-04-22 15:42 | 51.93177 | 25.89773 | 25951 ft | 308 kts | 210° |
| 2026-04-22 15:42 | 51.91325 | 25.88025 | 25950 ft | 308 kts | 210° |
| 2026-04-22 15:43 | 51.89481 | 25.86245 | 25953 ft | 308 kts | 210° |
| 2026-04-22 15:43 | 51.87651 | 25.84461 | 25955 ft | 308 kts | 210° |
| 2026-04-22 15:43 | 51.85817 | 25.82688 | 25952 ft | 308 kts | 210° |
| 2026-04-22 15:43 | 51.83962 | 25.80905 | 25954 ft | 308 kts | 210° |
| 2026-04-22 15:44 | 51.82121 | 25.79136 | 25956 ft | 308 kts | 210° |
| 2026-04-22 15:44 | 51.80326 | 25.77407 | 25955 ft | 308 kts | 210° |
| 2026-04-22 15:44 | 51.78403 | 25.75557 | 25957 ft | 308 kts | 210° |
| 2026-04-22 15:44 | 51.76559 | 25.73787 | 25959 ft | 308 kts | 210° |
| 2026-04-22 15:45 | 51.74690 | 25.71995 | 25958 ft | 308 kts | 210° |
| 2026-04-22 15:45 | 51.72843 | 25.70225 | 25961 ft | 309 kts | 210° |
| 2026-04-22 15:45 | 51.71041 | 25.68500 | 25959 ft | 309 kts | 209° |
| 2026-04-22 15:45 | 51.69206 | 25.66745 | 25959 ft | 309 kts | 209° |
| 2026-04-22 15:46 | 51.67402 | 25.65020 | 25960 ft | 309 kts | 209° |
| 2026-04-22 15:46 | 51.66116 | 25.63793 | 25961 ft | 309 kts | 209° |
| 2026-04-22 15:46 | 51.64266 | 25.62028 | 25961 ft | 309 kts | 209° |
| 2026-04-22 15:46 | 51.62492 | 25.60337 | 25963 ft | 309 kts | 209° |
| 2026-04-22 15:47 | 51.60658 | 25.58591 | 25962 ft | 309 kts | 209° |
| 2026-04-22 15:47 | 51.58835 | 25.56857 | 25964 ft | 309 kts | 209° |
| 2026-04-22 15:47 | 51.56917 | 25.55034 | 25967 ft | 309 kts | 209° |
| 2026-04-22 15:47 | 51.55101 | 25.53309 | 25966 ft | 309 kts | 209° |
| 2026-04-22 15:48 | 51.53175 | 25.51483 | 25967 ft | 309 kts | 209° |
| 2026-04-22 15:48 | 51.51335 | 25.49739 | 25962 ft | 310 kts | 209° |
| 2026-04-22 15:48 | 51.49442 | 25.47947 | 25968 ft | 310 kts | 209° |
| 2026-04-22 15:48 | 51.47600 | 25.46204 | 25968 ft | 310 kts | 209° |
| 2026-04-22 15:49 | 51.45726 | 25.44434 | 25966 ft | 310 kts | 208° |
| 2026-04-22 15:49 | 51.43851 | 25.42663 | 25969 ft | 310 kts | 208° |
| 2026-04-22 15:49 | 51.42002 | 25.40920 | 25968 ft | 310 kts | 208° |
| 2026-04-22 15:49 | 51.40150 | 25.39174 | 25973 ft | 310 kts | 208° |
| 2026-04-22 15:50 | 51.38281 | 25.37415 | 25970 ft | 310 kts | 208° |
| 2026-04-22 15:50 | 51.36421 | 25.35667 | 25972 ft | 310 kts | 208° |
| 2026-04-22 15:50 | 51.34560 | 25.33918 | 25972 ft | 310 kts | 208° |
| 2026-04-22 15:50 | 51.32676 | 25.32149 | 25969 ft | 310 kts | 208° |
| 2026-04-22 15:51 | 51.30786 | 25.30377 | 25973 ft | 310 kts | 208° |
| 2026-04-22 15:51 | 51.29006 | 25.28709 | 25975 ft | 310 kts | 208° |
| 2026-04-22 15:51 | 51.27014 | 25.26845 | 25970 ft | 310 kts | 208° |
| 2026-04-22 15:51 | 51.25151 | 25.25103 | 25966 ft | 311 kts | 208° |
| 2026-04-22 15:52 | 51.23284 | 25.23359 | 25975 ft | 311 kts | 208° |
| 2026-04-22 15:52 | 51.21391 | 25.21593 | 25976 ft | 311 kts | 208° |
| 2026-04-22 15:52 | 51.19526 | 25.19853 | 25976 ft | 311 kts | 208° |
| 2026-04-22 15:52 | 51.17659 | 25.18115 | 25977 ft | 311 kts | 207° |
| 2026-04-22 15:53 | 51.15790 | 25.16375 | 25981 ft | 311 kts | 207° |
| 2026-04-22 15:53 | 51.13923 | 25.14639 | 25978 ft | 311 kts | 207° |
| 2026-04-22 15:53 | 51.12063 | 25.12912 | 25978 ft | 311 kts | 207° |
| 2026-04-22 15:53 | 51.10199 | 25.11183 | 25979 ft | 311 kts | 207° |
| 2026-04-22 15:54 | 51.08318 | 25.09438 | 25978 ft | 311 kts | 207° |
| 2026-04-22 15:54 | 51.06454 | 25.07712 | 25978 ft | 311 kts | 207° |
| 2026-04-22 15:54 | 51.04580 | 25.05978 | 25979 ft | 311 kts | 207° |
| 2026-04-22 15:54 | 51.02711 | 25.04250 | 25978 ft | 311 kts | 207° |
| 2026-04-22 15:55 | 51.00837 | 25.02520 | 25985 ft | 311 kts | 207° |
| 2026-04-22 15:55 | 50.98973 | 25.00800 | 25988 ft | 311 kts | 207° |
| 2026-04-22 15:55 | 50.97090 | 24.99061 | 25991 ft | 311 kts | 207° |
| 2026-04-22 15:55 | 50.95218 | 24.97328 | 25986 ft | 311 kts | 207° |
| 2026-04-22 15:56 | 50.93344 | 24.95595 | 25983 ft | 311 kts | 207° |
| 2026-04-22 15:56 | 50.91474 | 24.93870 | 25987 ft | 311 kts | 207° |
| 2026-04-22 15:56 | 50.89618 | 24.92159 | 25987 ft | 311 kts | 207° |
| 2026-04-22 15:56 | 50.87725 | 24.90416 | 25989 ft | 312 kts | 207° |
| 2026-04-22 15:57 | 50.85850 | 24.88691 | 25988 ft | 312 kts | 207° |
| 2026-04-22 15:57 | 50.83987 | 24.86977 | 25987 ft | 312 kts | 207° |
| 2026-04-22 15:57 | 50.82099 | 24.85244 | 25986 ft | 312 kts | 207° |
| 2026-04-22 15:57 | 50.80221 | 24.83520 | 25989 ft | 312 kts | 207° |
| 2026-04-22 15:58 | 50.78345 | 24.81801 | 25989 ft | 312 kts | 207° |
| 2026-04-22 15:58 | 50.76468 | 24.80081 | 25992 ft | 312 kts | 207° |
| 2026-04-22 15:58 | 50.74580 | 24.78354 | 25994 ft | 312 kts | 206° |
| 2026-04-22 15:58 | 50.72701 | 24.76643 | 25992 ft | 312 kts | 206° |
| 2026-04-22 15:59 | 50.70828 | 24.74939 | 25995 ft | 312 kts | 206° |
| 2026-04-22 15:59 | 50.68935 | 24.73218 | 25997 ft | 312 kts | 206° |
| 2026-04-22 15:59 | 50.67035 | 24.71491 | 25997 ft | 312 kts | 206° |
| 2026-04-22 15:59 | 50.65154 | 24.69782 | 25996 ft | 312 kts | 206° |
| 2026-04-22 16:00 | 50.63913 | 24.68657 | 25996 ft | 312 kts | 206° |
| 2026-04-22 16:00 | 50.61406 | 24.66385 | 25999 ft | 312 kts | 206° |
| 2026-04-22 16:00 | 50.60191 | 24.65285 | 25992 ft | 312 kts | 206° |
| 2026-04-22 16:00 | 50.58279 | 24.63555 | 25996 ft | 312 kts | 206° |
| 2026-04-22 16:01 | 50.55778 | 24.61295 | 25857 ft | 316 kts | 206° |
| 2026-04-22 16:01 | 50.54678 | 24.60302 | 25917 ft | 319 kts | 207° |
| 2026-04-22 16:01 | 50.52787 | 24.58588 | 25260 ft | 308 kts | 206° |
| 2026-04-22 16:01 | 50.50928 | 24.56909 | 24886 ft | 300 kts | 206° |
| 2026-04-22 16:02 | 50.49103 | 24.55274 | 24524 ft | 305 kts | 206° |
| 2026-04-22 16:02 | 50.47246 | 24.53611 | 24181 ft | 309 kts | 207° |
| 2026-04-22 16:02 | 50.45381 | 24.51929 | 23830 ft | 311 kts | 207° |
| 2026-04-22 16:02 | 50.43502 | 24.50237 | 23466 ft | 311 kts | 207° |
| 2026-04-22 16:03 | 50.41615 | 24.48544 | 23039 ft | 311 kts | 207° |
| 2026-04-22 16:03 | 50.39792 | 24.46911 | 22640 ft | 310 kts | 207° |
| 2026-04-22 16:03 | 50.37878 | 24.45196 | 22219 ft | 309 kts | 208° |
| 2026-04-22 16:03 | 50.36014 | 24.43527 | 21815 ft | 307 kts | 208° |
| 2026-04-22 16:04 | 50.34164 | 24.41873 | 21417 ft | 306 kts | 208° |
| 2026-04-22 16:04 | 50.32319 | 24.40225 | 21028 ft | 304 kts | 208° |
| 2026-04-22 16:04 | 50.30489 | 24.38592 | 20641 ft | 303 kts | 208° |
| 2026-04-22 16:04 | 50.28657 | 24.36959 | 20251 ft | 301 kts | 209° |
| 2026-04-22 16:05 | 50.26859 | 24.35356 | 19881 ft | 300 kts | 209° |
| 2026-04-22 16:05 | 50.25224 | 24.33901 | 19545 ft | 298 kts | 209° |
| 2026-04-22 16:05 | 50.23436 | 24.32310 | 19179 ft | 297 kts | 209° |
| 2026-04-22 16:05 | 50.21629 | 24.30705 | 18820 ft | 295 kts | 210° |
| 2026-04-22 16:06 | 50.19841 | 24.29118 | 18452 ft | 294 kts | 210° |
| 2026-04-22 16:06 | 50.18074 | 24.27550 | 18066 ft | 293 kts | 210° |
| 2026-04-22 16:06 | 50.16277 | 24.25957 | 17646 ft | 291 kts | 210° |
| 2026-04-22 16:06 | 50.14468 | 24.24586 | 17233 ft | 289 kts | 197° |
| 2026-04-22 16:07 | 50.12503 | 24.24052 | 16832 ft | 286 kts | 182° |
| 2026-04-22 16:07 | 50.10556 | 24.23973 | 16449 ft | 284 kts | 177° |
| 2026-04-22 16:07 | 50.08548 | 24.24031 | 16046 ft | 284 kts | 177° |
| 2026-04-22 16:07 | 50.06542 | 24.24018 | 15654 ft | 284 kts | 179° |
| 2026-04-22 16:08 | 50.04568 | 24.23949 | 15276 ft | 283 kts | 180° |
| 2026-04-22 16:08 | 50.02572 | 24.23893 | 14897 ft | 282 kts | 179° |
| 2026-04-22 16:08 | 50.00606 | 24.23859 | 14523 ft | 282 kts | 179° |
| 2026-04-22 16:08 | 49.98650 | 24.23824 | 14156 ft | 281 kts | 179° |
| 2026-04-22 16:09 | 49.96692 | 24.23782 | 13786 ft | 281 kts | 180° |
| 2026-04-22 16:09 | 49.94722 | 24.23739 | 13370 ft | 279 kts | 180° |
| 2026-04-22 16:09 | 49.92788 | 24.23699 | 12963 ft | 277 kts | 180° |
| 2026-04-22 16:09 | 49.90865 | 24.23660 | 12564 ft | 275 kts | 180° |
| 2026-04-22 16:10 | 49.88957 | 24.23616 | 12166 ft | 272 kts | 181° |
| 2026-04-22 16:10 | 49.87149 | 24.23147 | 11709 ft | 256 kts | 200° |
| 2026-04-22 16:10 | 49.86109 | 24.22404 | 11373 ft | 246 kts | 212° |
| 2026-04-22 16:10 | 49.84411 | 24.20243 | 10682 ft | 228 kts | 228° |
| 2026-04-22 16:11 | 49.83343 | 24.18500 | 10183 ft | 219 kts | 229° |
| 2026-04-22 16:11 | 49.82036 | 24.17352 | 9676 ft | 219 kts | 195° |
| 2026-04-22 16:11 | 49.80537 | 24.17228 | 9149 ft | 216 kts | 172° |
| 2026-04-22 16:11 | 49.79135 | 24.17966 | 8631 ft | 213 kts | 150° |
| 2026-04-22 16:12 | 49.77915 | 24.19223 | 8111 ft | 210 kts | 142° |
| 2026-04-22 16:12 | 49.76728 | 24.20582 | 7588 ft | 208 kts | 143° |
| 2026-04-22 16:12 | 49.75581 | 24.21922 | 7083 ft | 206 kts | 137° |
| 2026-04-22 16:12 | 49.74528 | 24.23468 | 6577 ft | 205 kts | 133° |
| 2026-04-22 16:13 | 49.73523 | 24.25027 | 6058 ft | 204 kts | 133° |
| 2026-04-22 16:13 | 49.72501 | 24.26566 | 5529 ft | 203 kts | 134° |
| 2026-04-22 16:13 | 49.71496 | 24.28055 | 5023 ft | 202 kts | 135° |
| 2026-04-22 16:13 | 49.70490 | 24.29400 | 4953 ft | 178 kts | 147° |
| 2026-04-22 16:14 | 49.69314 | 24.30055 | 4954 ft | 184 kts | 173° |
| 2026-04-22 16:14 | 49.68032 | 24.29921 | 4955 ft | 187 kts | 199° |
| 2026-04-22 16:14 | 49.66895 | 24.28997 | 4958 ft | 186 kts | 224° |
| 2026-04-22 16:14 | 49.66100 | 24.27458 | 4970 ft | 184 kts | 247° |
| 2026-04-22 16:15 | 49.65768 | 24.25602 | 4962 ft | 181 kts | 270° |
| 2026-04-22 16:15 | 49.65934 | 24.23683 | 4966 ft | 177 kts | 292° |
| 2026-04-22 16:15 | 49.66480 | 24.22008 | 4965 ft | 177 kts | 303° |
| 2026-04-22 16:15 | 49.67161 | 24.20327 | 4730 ft | 189 kts | 304° |
| 2026-04-22 16:16 | 49.67862 | 24.18583 | 4330 ft | 206 kts | 303° |
| 2026-04-22 16:16 | 49.68650 | 24.16574 | 3907 ft | 217 kts | 303° |
| 2026-04-22 16:16 | 49.69437 | 24.14552 | 3453 ft | 216 kts | 303° |
| 2026-04-22 16:16 | 49.70186 | 24.12640 | 2945 ft | 201 kts | 303° |
| 2026-04-22 16:17 | 49.70841 | 24.10963 | 2950 ft | 165 kts | 303° |
| 2026-04-22 16:17 | 49.71435 | 24.09633 | 2953 ft | 138 kts | 321° |
| 2026-04-22 16:17 | 49.72209 | 24.08919 | 2954 ft | 125 kts | 325° |
| 2026-04-22 16:17 | 49.72841 | 24.08053 | 2955 ft | 120 kts | 317° |
| 2026-04-22 16:18 | 49.73433 | 24.07161 | 2939 ft | 116 kts | 318° |
| 2026-04-22 16:18 | 49.73991 | 24.06325 | 2805 ft | 116 kts | 317° |
| 2026-04-22 16:18 | 49.74558 | 24.05473 | 2645 ft | 112 kts | 318° |
| 2026-04-22 16:18 | 49.75107 | 24.04646 | 2495 ft | 111 kts | 317° |
| 2026-04-22 16:19 | 49.75673 | 24.03802 | 2349 ft | 116 kts | 317° |
| 2026-04-22 16:19 | 49.76258 | 24.02916 | 2179 ft | 118 kts | 317° |
| 2026-04-22 16:19 | 49.76825 | 24.02069 | 2026 ft | 104 kts | 317° |
| 2026-04-22 16:19 | 49.77310 | 24.01336 | 1886 ft | 92 kts | 317° |
| 2026-04-22 16:20 | 49.77727 | 24.00713 | 1759 ft | 75 kts | 316° |
| 2026-04-22 16:20 | 49.78102 | 24.00161 | 1636 ft | 74 kts | 316° |
| 2026-04-22 16:20 | 49.78465 | 23.99601 | 1537 ft | 73 kts | 313° |
| 2026-04-22 16:20 | 49.78826 | 23.99060 | 1435 ft | 71 kts | 316° |
| 2026-04-22 16:21 | 49.79179 | 23.98546 | 1360 ft | 69 kts | 315° |
| 2026-04-22 16:21 | 49.79406 | 23.98197 | 1298 ft | 71 kts | 315° |
| 2026-04-22 16:21 | 49.79771 | 23.97648 | 1179 ft | 70 kts | 316° |
| 2026-04-22 16:21 | 49.80127 | 23.97106 | 1078 ft | 70 kts | 315° |
| 2026-04-22 16:22 | 49.80630 | 23.96355 | 1062 ft | 30 kts | 316° |
| 2026-04-22 16:22 | 49.80761 | 23.96158 | 1062 ft | 23 kts | 316° |
| 2026-04-22 16:22 | 49.80866 | 23.96030 | 1060 ft | 15 kts | 350° |
| 2026-04-22 16:23 | 49.81012 | 23.96036 | 1062 ft | 9 kts | 1° |
| 2026-04-22 16:23 | 49.81029 | 23.96036 | 1062 ft | 0 kts | 356° |
| 2026-04-22 16:23 | 49.81042 | 23.96034 | 1062 ft | 8 kts | 355° |
| 2026-04-22 16:24 | 49.81119 | 23.95964 | 1062 ft | 15 kts | 316° |
| 2026-04-22 16:24 | 49.81261 | 23.95749 | 1062 ft | 13 kts | 313° |
| 2026-04-22 16:24 | 49.81286 | 23.95657 | 1062 ft | 8 kts | 279° |
| 2026-04-22 16:25 | 49.81318 | 23.95589 | 1062 ft | 8 kts | 312° |
| 2026-04-22 16:25 | 49.81434 | 23.95473 | 1062 ft | 13 kts | 338° |
| 2026-04-22 16:25 | 49.81509 | 23.95380 | 1062 ft | 13 kts | 316° |
| 2026-04-22 16:26 | 49.81573 | 23.95283 | 1062 ft | 12 kts | 316° |
| 2026-04-22 16:26 | 49.81606 | 23.95237 | 1062 ft | 4 kts | 318° |
| 2026-04-22 16:26 | 49.81646 | 23.95172 | 1062 ft | 12 kts | 315° |
| 2026-04-22 16:26 | 49.81714 | 23.95078 | 1062 ft | 9 kts | 350° |
| 2026-04-22 16:27 | 49.81748 | 23.95160 | 1062 ft | 10 kts | 75° |
| 2026-04-22 16:27 | 49.81719 | 23.95213 | 1062 ft | 8 kts | 160° |
| 2026-04-22 16:27 | 49.81705 | 23.95226 | 1062 ft | 2 kts | 162° |
| 2026-04-22 16:27 | 49.81703 | 23.95227 | 1062 ft | 0 kts | 161° |